sensor_id;sensor_type;location;lat;lon;timestamp;pressure;altitude;pressure_sealevel;temperature;humidity
67727;BME280;54525;55.680;37.540;2022-08-19T00:02:11;100028.88;;;25.51;38.30
67727;BME280;54525;55.680;37.540;2022-08-19T00:04:40;100038.88;;;25.43;38.70
67727;BME280;54525;55.680;37.540;2022-08-19T00:07:06;100029.22;;;25.41;38.59
67727;BME280;54525;55.680;37.540;2022-08-19T00:09:32;100029.63;;;25.38;38.79
67727;BME280;54525;55.680;37.540;2022-08-19T00:11:58;100029.44;;;25.39;38.95
67727;BME280;54525;55.680;37.540;2022-08-19T00:14:26;100037.56;;;25.39;38.86
67727;BME280;54525;55.680;37.540;2022-08-19T00:16:53;100043.41;;;25.36;38.85
67727;BME280;54525;55.680;37.540;2022-08-19T00:19:20;100037.97;;;25.36;39.46
67727;BME280;54525;55.680;37.540;2022-08-19T00:21:46;100040.47;;;25.38;39.29
67727;BME280;54525;55.680;37.540;2022-08-19T00:24:13;100045.28;;;25.36;39.29
67727;BME280;54525;55.680;37.540;2022-08-19T00:26:40;100040.69;;;25.36;39.57
67727;BME280;54525;55.680;37.540;2022-08-19T00:29:08;100041.09;;;25.40;39.62
67727;BME280;54525;55.680;37.540;2022-08-19T00:31:34;100040.06;;;25.41;39.49
67727;BME280;54525;55.680;37.540;2022-08-19T00:34:01;100046.16;;;25.43;39.81
67727;BME280;54525;55.680;37.540;2022-08-19T00:36:26;100038.44;;;25.47;39.66
67727;BME280;54525;55.680;37.540;2022-08-19T00:38:53;100045.97;;;25.51;39.75
67727;BME280;54525;55.680;37.540;2022-08-19T00:41:20;100046.56;;;25.53;39.95
67727;BME280;54525;55.680;37.540;2022-08-19T00:44:09;100038.44;;;25.53;39.86
67727;BME280;54525;55.680;37.540;2022-08-19T00:46:37;100048.69;;;25.51;39.95
67727;BME280;54525;55.680;37.540;2022-08-19T00:49:15;100050.94;;;25.54;40.17
67727;BME280;54525;55.680;37.540;2022-08-19T00:51:43;100055.53;;;25.54;40.08
67727;BME280;54525;55.680;37.540;2022-08-19T00:54:10;100061.78;;;25.54;39.94
67727;BME280;54525;55.680;37.540;2022-08-19T00:56:37;100057.63;;;25.52;40.21
67727;BME280;54525;55.680;37.540;2022-08-19T00:59:03;100062.22;;;25.51;40.25
67727;BME280;54525;55.680;37.540;2022-08-19T01:01:38;100070.13;;;25.46;40.28
67727;BME280;54525;55.680;37.540;2022-08-19T01:04:04;100082.22;;;25.43;40.22
67727;BME280;54525;55.680;37.540;2022-08-19T01:06:31;100073.41;;;25.35;40.16
67727;BME280;54525;55.680;37.540;2022-08-19T01:08:58;100075.88;;;25.29;40.65
67727;BME280;54525;55.680;37.540;2022-08-19T01:11:25;100079.63;;;25.28;40.47
67727;BME280;54525;55.680;37.540;2022-08-19T01:13:52;100085.69;;;25.31;40.37
67727;BME280;54525;55.680;37.540;2022-08-19T01:16:20;100087.13;;;25.33;40.35
67727;BME280;54525;55.680;37.540;2022-08-19T01:18:47;100095.91;;;25.35;40.25
67727;BME280;54525;55.680;37.540;2022-08-19T01:23:49;100082.13;;;25.37;40.22
67727;BME280;54525;55.680;37.540;2022-08-19T01:26:19;100087.78;;;25.35;40.14
67727;BME280;54525;55.680;37.540;2022-08-19T01:28:47;100081.72;;;25.26;40.38
67727;BME280;54525;55.680;37.540;2022-08-19T01:31:16;100089.66;;;25.28;40.47
67727;BME280;54525;55.680;37.540;2022-08-19T01:33:42;100084.41;;;25.26;40.74
67727;BME280;54525;55.680;37.540;2022-08-19T01:36:15;100088.56;;;25.22;40.50
67727;BME280;54525;55.680;37.540;2022-08-19T01:38:42;100087.31;;;25.18;40.71
67727;BME280;54525;55.680;37.540;2022-08-19T01:41:10;100077.94;;;25.21;40.87
67727;BME280;54525;55.680;37.540;2022-08-19T01:43:37;100076.69;;;25.23;40.39
67727;BME280;54525;55.680;37.540;2022-08-19T01:46:03;100074.41;;;25.20;40.32
67727;BME280;54525;55.680;37.540;2022-08-19T01:48:35;100073.56;;;25.13;40.25
67727;BME280;54525;55.680;37.540;2022-08-19T01:51:01;100070.00;;;25.06;40.84
67727;BME280;54525;55.680;37.540;2022-08-19T01:53:27;100074.78;;;25.04;40.58
67727;BME280;54525;55.680;37.540;2022-08-19T01:55:53;100070.56;;;24.94;40.70
67727;BME280;54525;55.680;37.540;2022-08-19T01:58:21;100078.25;;;24.84;40.69
67727;BME280;54525;55.680;37.540;2022-08-19T02:00:48;100075.28;;;24.79;40.51
67727;BME280;54525;55.680;37.540;2022-08-19T02:03:13;100062.63;;;24.79;40.88
67727;BME280;54525;55.680;37.540;2022-08-19T02:05:40;100059.91;;;24.79;40.51
67727;BME280;54525;55.680;37.540;2022-08-19T02:08:07;100054.50;;;24.79;40.65
67727;BME280;54525;55.680;37.540;2022-08-19T02:10:33;100059.47;;;24.76;40.69
67727;BME280;54525;55.680;37.540;2022-08-19T02:12:58;100060.06;;;24.71;40.77
67727;BME280;54525;55.680;37.540;2022-08-19T02:15:24;100064.84;;;24.69;40.90
67727;BME280;54525;55.680;37.540;2022-08-19T02:17:51;100070.69;;;24.73;40.82
67727;BME280;54525;55.680;37.540;2022-08-19T02:20:16;100097.97;;;24.78;41.11
67727;BME280;54525;55.680;37.540;2022-08-19T02:22:42;100105.09;;;24.86;40.77
67727;BME280;54525;55.680;37.540;2022-08-19T02:25:11;100104.50;;;24.90;40.84
67727;BME280;54525;55.680;37.540;2022-08-19T02:27:36;100113.44;;;24.91;40.74
67727;BME280;54525;55.680;37.540;2022-08-19T02:30:09;100110.31;;;24.87;41.11
67727;BME280;54525;55.680;37.540;2022-08-19T02:32:35;100099.28;;;24.89;41.07
67727;BME280;54525;55.680;37.540;2022-08-19T02:35:01;100112.22;;;24.93;40.89
67727;BME280;54525;55.680;37.540;2022-08-19T02:37:27;100098.66;;;24.93;41.03
67727;BME280;54525;55.680;37.540;2022-08-19T02:40:11;100100.53;;;24.86;40.93
67727;BME280;54525;55.680;37.540;2022-08-19T02:42:36;100100.75;;;24.85;40.83
67727;BME280;54525;55.680;37.540;2022-08-19T02:45:03;100101.75;;;24.77;40.80
67727;BME280;54525;55.680;37.540;2022-08-19T02:47:28;100101.72;;;24.70;41.18
67727;BME280;54525;55.680;37.540;2022-08-19T02:49:54;100103.56;;;24.70;40.90
67727;BME280;54525;55.680;37.540;2022-08-19T02:52:19;100105.19;;;24.64;41.17
67727;BME280;54525;55.680;37.540;2022-08-19T02:54:45;100098.06;;;24.56;41.32
67727;BME280;54525;55.680;37.540;2022-08-19T02:57:11;100104.25;;;24.50;41.21
67727;BME280;54525;55.680;37.540;2022-08-19T02:59:36;100097.16;;;24.49;41.29
67727;BME280;54525;55.680;37.540;2022-08-19T03:02:02;100098.00;;;24.49;41.19
67727;BME280;54525;55.680;37.540;2022-08-19T03:04:27;100105.44;;;24.41;41.21
67727;BME280;54525;55.680;37.540;2022-08-19T03:06:54;100103.13;;;24.37;41.46
67727;BME280;54525;55.680;37.540;2022-08-19T03:09:20;100100.38;;;24.31;41.29
67727;BME280;54525;55.680;37.540;2022-08-19T03:11:46;100107.03;;;24.28;41.43
67727;BME280;54525;55.680;37.540;2022-08-19T03:14:12;100103.34;;;24.36;41.75
67727;BME280;54525;55.680;37.540;2022-08-19T03:16:48;100117.28;;;24.40;41.15
67727;BME280;54525;55.680;37.540;2022-08-19T03:19:16;100113.78;;;24.39;41.24
67727;BME280;54525;55.680;37.540;2022-08-19T03:21:43;100117.50;;;24.38;41.59
67727;BME280;54525;55.680;37.540;2022-08-19T03:24:10;100123.13;;;24.43;41.63
67727;BME280;54525;55.680;37.540;2022-08-19T03:26:39;100123.34;;;24.42;41.53
67727;BME280;54525;55.680;37.540;2022-08-19T03:29:06;100126.66;;;24.37;41.67
67727;BME280;54525;55.680;37.540;2022-08-19T03:31:32;100117.09;;;24.41;41.52
67727;BME280;54525;55.680;37.540;2022-08-19T03:33:58;100125.66;;;24.45;41.51
67727;BME280;54525;55.680;37.540;2022-08-19T03:36:25;100124.00;;;24.44;41.79
67727;BME280;54525;55.680;37.540;2022-08-19T03:38:53;100125.63;;;24.38;41.78
67727;BME280;54525;55.680;37.540;2022-08-19T03:41:25;100116.00;;;24.35;41.99
67727;BME280;54525;55.680;37.540;2022-08-19T03:43:52;100114.16;;;24.36;41.82
67727;BME280;54525;55.680;37.540;2022-08-19T03:46:21;100112.28;;;24.36;41.86
67727;BME280;54525;55.680;37.540;2022-08-19T03:48:49;100112.75;;;24.40;41.47
67727;BME280;54525;55.680;37.540;2022-08-19T03:51:28;100111.06;;;24.39;41.85
67727;BME280;54525;55.680;37.540;2022-08-19T03:53:57;100113.31;;;24.35;41.64
67727;BME280;54525;55.680;37.540;2022-08-19T03:56:24;100114.75;;;24.31;41.59
67727;BME280;54525;55.680;37.540;2022-08-19T03:58:57;100112.00;;;24.25;41.75
67727;BME280;54525;55.680;37.540;2022-08-19T04:01:25;100113.03;;;24.23;42.23
67727;BME280;54525;55.680;37.540;2022-08-19T04:03:55;100121.78;;;24.26;41.88
67727;BME280;54525;55.680;37.540;2022-08-19T04:06:24;100116.56;;;24.24;42.23
67727;BME280;54525;55.680;37.540;2022-08-19T04:08:52;100127.19;;;24.26;42.23
67727;BME280;54525;55.680;37.540;2022-08-19T04:11:21;100128.84;;;24.27;42.25
67727;BME280;54525;55.680;37.540;2022-08-19T04:13:48;100121.97;;;24.24;42.37
67727;BME280;54525;55.680;37.540;2022-08-19T04:16:14;100123.84;;;24.23;42.45
67727;BME280;54525;55.680;37.540;2022-08-19T04:18:40;100126.09;;;24.20;42.29
67727;BME280;54525;55.680;37.540;2022-08-19T04:21:07;100129.44;;;24.22;42.55
67727;BME280;54525;55.680;37.540;2022-08-19T04:23:34;100129.44;;;24.22;42.36
67727;BME280;54525;55.680;37.540;2022-08-19T04:26:01;100125.47;;;24.18;42.47
67727;BME280;54525;55.680;37.540;2022-08-19T04:28:27;100116.50;;;24.17;42.41
67727;BME280;54525;55.680;37.540;2022-08-19T04:30:54;100124.63;;;24.17;42.34
67727;BME280;54525;55.680;37.540;2022-08-19T04:33:24;100126.50;;;24.17;42.53
67727;BME280;54525;55.680;37.540;2022-08-19T04:35:51;100135.81;;;24.14;42.59
67727;BME280;54525;55.680;37.540;2022-08-19T04:38:19;100122.19;;;24.22;42.89
67727;BME280;54525;55.680;37.540;2022-08-19T04:40:48;100142.19;;;24.28;42.44
67727;BME280;54525;55.680;37.540;2022-08-19T04:43:33;100135.69;;;24.22;42.20
67727;BME280;54525;55.680;37.540;2022-08-19T04:46:07;100138.56;;;24.21;42.39
67727;BME280;54525;55.680;37.540;2022-08-19T04:48:35;100145.28;;;24.25;42.68
67727;BME280;54525;55.680;37.540;2022-08-19T04:51:01;100135.38;;;24.32;42.67
67727;BME280;54525;55.680;37.540;2022-08-19T04:53:29;100137.09;;;24.40;42.49
67727;BME280;54525;55.680;37.540;2022-08-19T04:55:57;100139.56;;;24.42;42.24
67727;BME280;54525;55.680;37.540;2022-08-19T04:58:24;100142.94;;;24.44;42.01
67727;BME280;54525;55.680;37.540;2022-08-19T05:00:50;100139.66;;;24.55;42.17
67727;BME280;54525;55.680;37.540;2022-08-19T05:03:16;100138.38;;;24.79;41.64
67727;BME280;54525;55.680;37.540;2022-08-19T05:05:43;100139.94;;;25.02;41.67
67727;BME280;54525;55.680;37.540;2022-08-19T05:08:10;100137.91;;;25.11;41.20
67727;BME280;54525;55.680;37.540;2022-08-19T05:10:37;100143.28;;;25.04;41.27
67727;BME280;54525;55.680;37.540;2022-08-19T05:13:03;100146.16;;;24.89;41.46
67727;BME280;54525;55.680;37.540;2022-08-19T05:15:29;100148.53;;;24.71;41.57
67727;BME280;54525;55.680;37.540;2022-08-19T05:17:55;100146.75;;;24.56;41.90
67727;BME280;54525;55.680;37.540;2022-08-19T05:20:39;100157.00;;;24.67;42.17
67727;BME280;54525;55.680;37.540;2022-08-19T05:23:23;100151.06;;;24.79;41.80
67727;BME280;54525;55.680;37.540;2022-08-19T05:25:50;100142.59;;;24.89;41.57
67727;BME280;54525;55.680;37.540;2022-08-19T05:28:17;100145.16;;;24.97;41.43
67727;BME280;54525;55.680;37.540;2022-08-19T05:30:43;100143.69;;;25.01;41.49
67727;BME280;54525;55.680;37.540;2022-08-19T05:33:10;100150.38;;;25.05;41.49
67727;BME280;54525;55.680;37.540;2022-08-19T05:35:38;100140.41;;;25.06;41.28
67727;BME280;54525;55.680;37.540;2022-08-19T05:38:07;100146.16;;;24.89;41.63
67727;BME280;54525;55.680;37.540;2022-08-19T05:40:35;100142.19;;;24.63;41.94
67727;BME280;54525;55.680;37.540;2022-08-19T05:43:05;100146.09;;;24.54;42.29
67727;BME280;54525;55.680;37.540;2022-08-19T05:45:31;100144.03;;;24.56;42.36
67727;BME280;54525;55.680;37.540;2022-08-19T05:47:57;100146.78;;;24.63;42.38
67727;BME280;54525;55.680;37.540;2022-08-19T05:50:24;100146.78;;;24.63;42.36
67727;BME280;54525;55.680;37.540;2022-08-19T05:52:50;100142.91;;;24.72;42.06
67727;BME280;54525;55.680;37.540;2022-08-19T05:55:16;100141.50;;;24.76;42.34
67727;BME280;54525;55.680;37.540;2022-08-19T05:57:42;100142.97;;;24.86;42.31
67727;BME280;54525;55.680;37.540;2022-08-19T06:00:08;100149.88;;;24.88;42.08
67727;BME280;54525;55.680;37.540;2022-08-19T06:02:35;100145.25;;;24.82;42.20
67727;BME280;54525;55.680;37.540;2022-08-19T06:05:03;100140.13;;;24.65;42.53
67727;BME280;54525;55.680;37.540;2022-08-19T06:07:31;100147.19;;;24.60;42.76
67727;BME280;54525;55.680;37.540;2022-08-19T06:09:56;100148.41;;;24.57;42.83
67727;BME280;54525;55.680;37.540;2022-08-19T06:12:22;100141.72;;;24.53;42.68
67727;BME280;54525;55.680;37.540;2022-08-19T06:14:54;100145.63;;;24.44;42.78
67727;BME280;54525;55.680;37.540;2022-08-19T06:17:20;100148.28;;;24.37;42.92
67727;BME280;54525;55.680;37.540;2022-08-19T06:19:50;100156.59;;;24.35;42.96
67727;BME280;54525;55.680;37.540;2022-08-19T06:22:15;100145.75;;;24.35;43.20
67727;BME280;54525;55.680;37.540;2022-08-19T06:24:41;100153.50;;;24.38;43.12
67727;BME280;54525;55.680;37.540;2022-08-19T06:27:07;100149.09;;;24.37;43.30
67727;BME280;54525;55.680;37.540;2022-08-19T06:29:32;100152.88;;;24.43;43.46
67727;BME280;54525;55.680;37.540;2022-08-19T06:32:00;100145.81;;;24.42;43.55
67727;BME280;54525;55.680;37.540;2022-08-19T06:34:27;100149.31;;;24.36;43.71
67727;BME280;54525;55.680;37.540;2022-08-19T06:36:54;100144.09;;;24.34;43.83
67727;BME280;54525;55.680;37.540;2022-08-19T06:39:26;100150.84;;;24.45;43.22
67727;BME280;54525;55.680;37.540;2022-08-19T06:41:55;100154.22;;;24.54;43.24
67727;BME280;54525;55.680;37.540;2022-08-19T06:44:23;100155.97;;;24.68;42.91
67727;BME280;54525;55.680;37.540;2022-08-19T06:46:49;100153.56;;;24.74;43.06
67727;BME280;54525;55.680;37.540;2022-08-19T06:49:16;100147.75;;;24.77;42.91
67727;BME280;54525;55.680;37.540;2022-08-19T06:51:43;100147.31;;;24.80;42.98
67727;BME280;54525;55.680;37.540;2022-08-19T06:54:10;100155.06;;;24.83;42.69
67727;BME280;54525;55.680;37.540;2022-08-19T06:56:36;100148.41;;;24.86;43.02
67727;BME280;54525;55.680;37.540;2022-08-19T06:59:05;100145.09;;;24.90;42.62
67727;BME280;54525;55.680;37.540;2022-08-19T07:01:41;100150.75;;;24.95;42.59
67727;BME280;54525;55.680;37.540;2022-08-19T07:04:09;100149.94;;;25.02;42.25
67727;BME280;54525;55.680;37.540;2022-08-19T07:06:35;100156.81;;;25.04;41.96
67727;BME280;54525;55.680;37.540;2022-08-19T07:09:02;100157.03;;;25.03;42.11
67727;BME280;54525;55.680;37.540;2022-08-19T07:11:28;100154.31;;;25.03;42.16
67727;BME280;54525;55.680;37.540;2022-08-19T07:13:53;100154.97;;;25.05;42.47
67727;BME280;54525;55.680;37.540;2022-08-19T07:16:20;100156.63;;;25.06;42.20
67727;BME280;54525;55.680;37.540;2022-08-19T07:18:48;100157.81;;;24.96;41.96
67727;BME280;54525;55.680;37.540;2022-08-19T07:21:19;100156.78;;;24.97;42.31
67727;BME280;54525;55.680;37.540;2022-08-19T07:23:46;100160.56;;;25.03;42.06
67727;BME280;54525;55.680;37.540;2022-08-19T07:26:23;100147.28;;;25.08;41.85
67727;BME280;54525;55.680;37.540;2022-08-19T07:28:49;100157.31;;;25.14;41.62
67727;BME280;54525;55.680;37.540;2022-08-19T07:31:20;100151.28;;;25.19;41.83
67727;BME280;54525;55.680;37.540;2022-08-19T07:33:48;100153.56;;;25.22;41.33
67727;BME280;54525;55.680;37.540;2022-08-19T07:36:16;100156.91;;;25.24;41.24
67727;BME280;54525;55.680;37.540;2022-08-19T07:38:44;100162.34;;;25.31;41.39
67727;BME280;54525;55.680;37.540;2022-08-19T07:41:12;100168.28;;;25.41;41.21
67727;BME280;54525;55.680;37.540;2022-08-19T07:43:39;100158.91;;;25.51;40.92
67727;BME280;54525;55.680;37.540;2022-08-19T07:46:05;100162.03;;;25.54;40.72
67727;BME280;54525;55.680;37.540;2022-08-19T07:48:31;100163.09;;;25.60;40.61
67727;BME280;54525;55.680;37.540;2022-08-19T07:51:00;100148.72;;;25.59;40.26
67727;BME280;54525;55.680;37.540;2022-08-19T07:53:29;100158.09;;;25.57;40.65
67727;BME280;54525;55.680;37.540;2022-08-19T07:55:55;100164.13;;;25.59;40.41
67727;BME280;54525;55.680;37.540;2022-08-19T07:58:21;100155.19;;;25.58;40.41
67727;BME280;54525;55.680;37.540;2022-08-19T08:00:49;100159.78;;;25.65;40.32
67727;BME280;54525;55.680;37.540;2022-08-19T08:03:17;100163.72;;;25.69;39.91
67727;BME280;54525;55.680;37.540;2022-08-19T08:05:43;100158.94;;;25.64;39.93
67727;BME280;54525;55.680;37.540;2022-08-19T08:08:27;100159.31;;;25.54;39.88
67727;BME280;54525;55.680;37.540;2022-08-19T08:11:13;100168.63;;;25.32;40.04
67727;BME280;54525;55.680;37.540;2022-08-19T08:13:39;100166.31;;;25.28;40.32
67727;BME280;54525;55.680;37.540;2022-08-19T08:16:06;100179.22;;;25.33;40.13
67727;BME280;54525;55.680;37.540;2022-08-19T08:18:32;100168.63;;;25.38;40.07
67727;BME280;54525;55.680;37.540;2022-08-19T08:20:59;100175.09;;;25.37;40.34
67727;BME280;54525;55.680;37.540;2022-08-19T08:23:25;100177.59;;;25.39;40.42
67727;BME280;54525;55.680;37.540;2022-08-19T08:25:53;100176.13;;;25.36;40.16
67727;BME280;54525;55.680;37.540;2022-08-19T08:28:20;100183.00;;;25.39;40.45
67727;BME280;54525;55.680;37.540;2022-08-19T08:30:48;100169.66;;;25.37;40.56
67727;BME280;54525;55.680;37.540;2022-08-19T08:33:18;100171.06;;;25.20;41.10
67727;BME280;54525;55.680;37.540;2022-08-19T08:35:44;100192.69;;;25.13;41.19
67727;BME280;54525;55.680;37.540;2022-08-19T08:38:11;100187.09;;;25.14;40.98
67727;BME280;54525;55.680;37.540;2022-08-19T08:40:53;100180.22;;;25.19;41.04
67727;BME280;54525;55.680;37.540;2022-08-19T08:43:33;100184.63;;;25.26;41.00
67727;BME280;54525;55.680;37.540;2022-08-19T08:46:04;100181.94;;;25.33;40.55
67727;BME280;54525;55.680;37.540;2022-08-19T08:48:37;100174.84;;;25.32;40.68
67727;BME280;54525;55.680;37.540;2022-08-19T08:51:05;100172.38;;;25.37;40.75
67727;BME280;54525;55.680;37.540;2022-08-19T08:53:34;100169.28;;;25.40;40.44
67727;BME280;54525;55.680;37.540;2022-08-19T08:56:03;100173.72;;;25.48;40.44
67727;BME280;54525;55.680;37.540;2022-08-19T08:58:38;100172.88;;;25.54;39.69
67727;BME280;54525;55.680;37.540;2022-08-19T09:01:10;100178.75;;;25.58;40.10
67727;BME280;54525;55.680;37.540;2022-08-19T09:03:37;100171.03;;;25.62;39.55
67727;BME280;54525;55.680;37.540;2022-08-19T09:06:11;100179.34;;;25.67;39.51
67727;BME280;54525;55.680;37.540;2022-08-19T09:08:48;100182.94;;;25.74;39.45
67727;BME280;54525;55.680;37.540;2022-08-19T09:16:53;100173.75;;;25.62;38.45
67727;BME280;54525;55.680;37.540;2022-08-19T09:19:18;100174.56;;;25.62;38.80
67727;BME280;54525;55.680;37.540;2022-08-19T09:21:44;100184.38;;;25.70;38.69
67727;BME280;54525;55.680;37.540;2022-08-19T09:24:11;100185.44;;;25.75;38.50
67727;BME280;54525;55.680;37.540;2022-08-19T09:26:37;100182.13;;;25.80;38.82
67727;BME280;54525;55.680;37.540;2022-08-19T09:29:02;100184.22;;;25.85;38.63
67727;BME280;54525;55.680;37.540;2022-08-19T09:31:31;100183.19;;;25.86;38.63
67727;BME280;54525;55.680;37.540;2022-08-19T09:33:58;100187.97;;;25.84;38.59
67727;BME280;54525;55.680;37.540;2022-08-19T09:36:27;100189.81;;;25.83;38.75
67727;BME280;54525;55.680;37.540;2022-08-19T09:38:55;100186.69;;;25.80;38.88
67727;BME280;54525;55.680;37.540;2022-08-19T09:41:23;100191.06;;;25.81;38.81
67727;BME280;54525;55.680;37.540;2022-08-19T09:43:52;100192.13;;;25.80;38.97
67727;BME280;54525;55.680;37.540;2022-08-19T09:46:21;100202.75;;;25.81;39.17
67727;BME280;54525;55.680;37.540;2022-08-19T09:48:48;100187.94;;;25.77;38.92
67727;BME280;54525;55.680;37.540;2022-08-19T09:51:18;100196.09;;;25.77;38.96
67727;BME280;54525;55.680;37.540;2022-08-19T09:53:46;100186.91;;;25.71;38.75
67727;BME280;54525;55.680;37.540;2022-08-19T09:56:15;100185.22;;;25.70;38.95
67727;BME280;54525;55.680;37.540;2022-08-19T09:58:40;100185.22;;;25.70;38.88
67727;BME280;54525;55.680;37.540;2022-08-19T10:01:07;100170.19;;;25.74;38.59
67727;BME280;54525;55.680;37.540;2022-08-19T10:03:35;100204.84;;;25.79;38.05
67727;BME280;54525;55.680;37.540;2022-08-19T10:06:03;100204.84;;;25.72;36.91
67727;BME280;54525;55.680;37.540;2022-08-19T10:08:32;100207.31;;;25.67;35.44
67727;BME280;54525;55.680;37.540;2022-08-19T10:10:58;100205.84;;;25.65;35.15
67727;BME280;54525;55.680;37.540;2022-08-19T10:13:27;100208.56;;;25.65;34.47
67727;BME280;54525;55.680;37.540;2022-08-19T10:15:54;100213.97;;;25.65;34.39
67727;BME280;54525;55.680;37.540;2022-08-19T10:18:23;100205.25;;;25.69;34.06
67727;BME280;54525;55.680;37.540;2022-08-19T10:20:50;100216.09;;;25.76;33.81
67727;BME280;54525;55.680;37.540;2022-08-19T10:23:19;100201.50;;;25.77;33.81
67727;BME280;54525;55.680;37.540;2022-08-19T10:25:45;100213.16;;;25.78;33.64
67727;BME280;54525;55.680;37.540;2022-08-19T10:28:11;100202.31;;;25.78;33.42
67727;BME280;54525;55.680;37.540;2022-08-19T10:30:38;100214.84;;;25.79;33.68
67727;BME280;54525;55.680;37.540;2022-08-19T10:33:05;100201.50;;;25.77;33.14
67727;BME280;54525;55.680;37.540;2022-08-19T10:35:30;100211.31;;;25.78;33.39
67727;BME280;54525;55.680;37.540;2022-08-19T10:37:56;100217.56;;;25.79;32.83
67727;BME280;54525;55.680;37.540;2022-08-19T10:40:27;100209.00;;;25.75;32.17
67727;BME280;54525;55.680;37.540;2022-08-19T10:42:53;100204.84;;;25.72;31.78
67727;BME280;54525;55.680;37.540;2022-08-19T10:45:20;100201.69;;;25.69;31.04
67727;BME280;54525;55.680;37.540;2022-08-19T10:47:50;100200.84;;;25.62;31.24
67727;BME280;54525;55.680;37.540;2022-08-19T10:50:16;100217.31;;;25.67;30.89
67727;BME280;54525;55.680;37.540;2022-08-19T10:53:07;100206.25;;;25.62;30.32
67727;BME280;54525;55.680;37.540;2022-08-19T10:55:36;100209.38;;;25.65;30.32
67727;BME280;54525;55.680;37.540;2022-08-19T10:58:21;100214.56;;;25.60;30.19
67727;BME280;54525;55.680;37.540;2022-08-19T11:00:53;100210.63;;;25.63;30.21
67727;BME280;54525;55.680;37.540;2022-08-19T11:03:20;100212.31;;;25.64;30.24
67727;BME280;54525;55.680;37.540;2022-08-19T11:05:45;100222.53;;;25.68;30.17
67727;BME280;54525;55.680;37.540;2022-08-19T11:08:11;100207.31;;;25.67;29.91
67727;BME280;54525;55.680;37.540;2022-08-19T11:10:40;100211.88;;;25.67;29.57
67727;BME280;54525;55.680;37.540;2022-08-19T11:13:06;100199.41;;;25.66;29.27
67727;BME280;54525;55.680;37.540;2022-08-19T11:15:31;100200.84;;;25.62;29.70
67727;BME280;54525;55.680;37.540;2022-08-19T11:17:58;100199.78;;;25.56;29.59
67727;BME280;54525;55.680;37.540;2022-08-19T11:20:24;100214.38;;;25.55;29.54
67727;BME280;54525;55.680;37.540;2022-08-19T11:22:52;100201.44;;;25.50;29.99
67727;BME280;54525;55.680;37.540;2022-08-19T11:25:19;100206.00;;;25.50;29.75
67727;BME280;54525;55.680;37.540;2022-08-19T11:27:44;100205.56;;;25.46;30.05
67727;BME280;54525;55.680;37.540;2022-08-19T11:30:12;100193.88;;;25.46;30.05
67727;BME280;54525;55.680;37.540;2022-08-19T11:32:38;100187.88;;;25.50;30.31
67727;BME280;54525;55.680;37.540;2022-08-19T11:35:04;100195.19;;;25.56;30.32
67727;BME280;54525;55.680;37.540;2022-08-19T11:37:29;100193.09;;;25.58;30.16
67727;BME280;54525;55.680;37.540;2022-08-19T11:39:55;100199.34;;;25.59;30.56
67727;BME280;54525;55.680;37.540;2022-08-19T11:42:20;100190.81;;;25.62;30.23
67727;BME280;54525;55.680;37.540;2022-08-19T11:45:05;100196.84;;;25.57;30.08
67727;BME280;54525;55.680;37.540;2022-08-19T11:47:30;100197.47;;;25.53;30.09
67727;BME280;54525;55.680;37.540;2022-08-19T11:49:56;100204.16;;;25.50;30.07
67727;BME280;54525;55.680;37.540;2022-08-19T11:52:22;100203.50;;;25.48;30.37
67727;BME280;54525;55.680;37.540;2022-08-19T11:54:47;100207.47;;;25.52;30.67
67727;BME280;54525;55.680;37.540;2022-08-19T11:57:13;100202.28;;;25.57;30.71
67727;BME280;54525;55.680;37.540;2022-08-19T11:59:42;100205.22;;;25.63;30.76
67727;BME280;54525;55.680;37.540;2022-08-19T12:02:07;100210.63;;;25.63;31.11
67727;BME280;54525;55.680;37.540;2022-08-19T12:04:34;100199.81;;;25.63;31.18
67727;BME280;54525;55.680;37.540;2022-08-19T12:06:59;100199.97;;;25.61;31.49
67727;BME280;54525;55.680;37.540;2022-08-19T12:09:25;100185.56;;;25.47;31.77
67727;BME280;54525;55.680;37.540;2022-08-19T12:11:51;100185.56;;;25.47;32.16
67727;BME280;54525;55.680;37.540;2022-08-19T12:14:16;100195.34;;;25.41;32.54
67727;BME280;54525;55.680;37.540;2022-08-19T12:16:44;100204.94;;;25.44;32.77
67727;BME280;54525;55.680;37.540;2022-08-19T12:19:11;100182.63;;;25.42;33.01
67727;BME280;54525;55.680;37.540;2022-08-19T12:21:36;100181.38;;;25.44;33.35
67727;BME280;54525;55.680;37.540;2022-08-19T12:24:04;100183.06;;;25.46;33.43
67727;BME280;54525;55.680;37.540;2022-08-19T12:26:30;100187.44;;;25.47;33.79
67727;BME280;54525;55.680;37.540;2022-08-19T12:28:56;100186.00;;;25.51;33.73
67727;BME280;54525;55.680;37.540;2022-08-19T12:31:25;100180.59;;;25.51;33.67
67727;BME280;54525;55.680;37.540;2022-08-19T12:33:50;100184.13;;;25.51;34.05
67727;BME280;54525;55.680;37.540;2022-08-19T12:36:17;100185.38;;;25.55;33.76
67727;BME280;54525;55.680;37.540;2022-08-19T12:38:43;100185.19;;;25.57;33.55
67727;BME280;54525;55.680;37.540;2022-08-19T12:41:12;100178.13;;;25.63;33.75
67727;BME280;54525;55.680;37.540;2022-08-19T12:43:39;100176.66;;;25.67;34.02
67727;BME280;54525;55.680;37.540;2022-08-19T12:46:05;100180.44;;;25.72;34.14
67727;BME280;54525;55.680;37.540;2022-08-19T12:48:32;100177.94;;;25.78;34.09
67727;BME280;54525;55.680;37.540;2022-08-19T12:50:58;100195.69;;;25.80;34.47
67727;BME280;54525;55.680;37.540;2022-08-19T12:53:23;100178.97;;;25.77;34.33